Skip to main content.
Station Historical Data
 
Daily Summary for July 23, 2017 Units:  Both    English   Metric
« Previous Day
Next Day »
Daily Weekly Monthly Yearly Custom
  Current: High: Low: Average:
Temperature: 73.6 °F /  23.1 °C 90.1 °F /  32.3 °C 66.7 °F /  19.3 °C 78.4 °F /  25.8 °C
Dew Point: 66.4 °F /  19.1 °C 75.9 °F /  24.4 °C 65.1 °F /  18.4 °C 70 °F /  21.1 °C
Humidity: 78 % 97 % 50 % 78 %
Wind Speed: 3.4 mph /  5.5 km/h 11.3 mph /  18.2 km/h - 4.1 mph /  6.6 km/h
Wind Gust: 4 mph /  6.4 km/h 14 mph /  22.5 km/h - -
Wind:NE - - SW
Pressure: 29.9 in /  1011.4 hPa 29.9 in /  1012.4 hPa 29.8 in /  1009.7 hPa -
Precipitation: 0 in /  0.0 mm      
Historical Graphs
 
 
Tabular Data for July 23, 2017
Time Temperature Dew Point Pressure Wind Wind Speed Wind Gust Humidity Rainfall Rate (Hourly) solar Conditions
00:03 73 °F /  22.8 °C 70.3 °F /  21.3 °C 29.8 in /  1010.7 hPa NNE 2.7 mph /  4.3 km/h 3.5 mph /  5.6 km/h 91 % 0 in /  0.0 mm 0.0 W/m2 FEW
00:08 73 °F /  22.8 °C 70.3 °F /  21.3 °C 29.8 in /  1010.7 hPa North 1.5 mph /  2.4 km/h 3.5 mph /  5.6 km/h 91 % 0 in /  0.0 mm 0.0 W/m2 FEW
00:13 73 °F /  22.8 °C 70.3 °F /  21.3 °C 29.8 in /  1010.7 hPa WSW 0.1 mph /  0.2 km/h 1.1 mph /  1.8 km/h 91 % 0 in /  0.0 mm 0.0 W/m2 FEW
00:18 73.2 °F /  22.9 °C 70.3 °F /  21.3 °C 29.8 in /  1010.7 hPa West 0.4 mph /  0.6 km/h 1.1 mph /  1.8 km/h 91 % 0 in /  0.0 mm 0.0 W/m2 FEW
00:23 73 °F /  22.8 °C 70.3 °F /  21.3 °C 29.8 in /  1010.7 hPa Calm     91 % 0 in /  0.0 mm 0.0 W/m2 FEW
00:28 72.9 °F /  22.7 °C 70.2 °F /  21.2 °C 29.8 in /  1010.7 hPa NNE 0.9 mph /  1.4 km/h 1.1 mph /  1.8 km/h 91 % 0 in /  0.0 mm 0.0 W/m2 FEW
00:33 73 °F /  22.8 °C 70.3 °F /  21.3 °C 29.8 in /  1010.7 hPa North 1 mph /  1.6 km/h 1.1 mph /  1.8 km/h 91 % 0 in /  0.0 mm 0.0 W/m2 FEW
00:38 73 °F /  22.8 °C 70.2 °F /  21.2 °C 29.8 in /  1010.7 hPa NNE 0.8 mph /  1.3 km/h 2.3 mph /  3.7 km/h 91 % 0 in /  0.0 mm 0.0 W/m2 FEW
00:43 72.9 °F /  22.7 °C 70.2 °F /  21.2 °C 29.8 in /  1010.4 hPa NNW 0.1 mph /  0.2 km/h 1.1 mph /  1.8 km/h 91 % 0 in /  0.0 mm 0.0 W/m2 FEW
00:48 72.9 °F /  22.7 °C 70.3 °F /  21.3 °C 29.8 in /  1010.7 hPa NW 1 mph /  1.6 km/h 1.1 mph /  1.8 km/h 92 % 0 in /  0.0 mm 0.0 W/m2 FEW
00:53 72.9 °F /  22.7 °C 70.3 °F /  21.3 °C 29.8 in /  1010.7 hPa NW 1 mph /  1.6 km/h 2.3 mph /  3.7 km/h 92 % 0 in /  0.0 mm 0.0 W/m2 FEW
00:58 72.7 °F /  22.6 °C 69.8 °F /  21.0 °C 29.8 in /  1010.7 hPa Calm   1.1 mph /  1.8 km/h 91 % 0 in /  0.0 mm 0.0 W/m2 FEW
01:03 72.3 °F /  22.4 °C 69.6 °F /  20.9 °C 29.8 in /  1010.7 hPa North 0.6 mph /  1.0 km/h 1.1 mph /  1.8 km/h 91 % 0 in /  0.0 mm 0.0 W/m2 FEW
01:08 72.3 °F /  22.4 °C 69.8 °F /  21.0 °C 29.8 in /  1010.7 hPa North 1.8 mph /  2.9 km/h 2.3 mph /  3.7 km/h 92 % 0 in /  0.0 mm 0.0 W/m2 FEW
01:13 72.1 °F /  22.3 °C 69.6 °F /  20.9 °C 29.8 in /  1010.7 hPa NNW 3.1 mph /  5.0 km/h 3.5 mph /  5.6 km/h 92 % 0 in /  0.0 mm 0.0 W/m2 FEW
01:18 72 °F /  22.2 °C 69.4 °F /  20.8 °C 29.8 in /  1010.7 hPa North 5.8 mph /  9.3 km/h 8.1 mph /  13.0 km/h 92 % 0 in /  0.0 mm 0.0 W/m2 FEW
01:23 72 °F /  22.2 °C 69.4 °F /  20.8 °C 29.8 in /  1010.7 hPa NNW 4.4 mph /  7.1 km/h 5.8 mph /  9.3 km/h 92 % 0 in /  0.0 mm 0.0 W/m2 FEW
01:28 72 °F /  22.2 °C 69.8 °F /  21.0 °C 29.8 in /  1010.7 hPa NNW 3.2 mph /  5.1 km/h 4 mph /  6.4 km/h 93 % 0 in /  0.0 mm 0.0 W/m2 FEW
01:33 72 °F /  22.2 °C 69.4 °F /  20.8 °C 29.8 in /  1010.7 hPa North 3.3 mph /  5.3 km/h 4 mph /  6.4 km/h 92 % 0 in /  0.0 mm 0.0 W/m2 FEW
01:38 71.8 °F /  22.1 °C 69.6 °F /  20.9 °C 29.8 in /  1010.7 hPa North 4.3 mph /  6.9 km/h 5.8 mph /  9.3 km/h 93 % 0 in /  0.0 mm 0.0 W/m2 FEW
01:43 71.8 °F /  22.1 °C 69.6 °F /  20.9 °C 29.8 in /  1010.4 hPa NNW 4 mph /  6.4 km/h 5 mph /  8.0 km/h 93 % 0 in /  0.0 mm 0.0 W/m2 FEW
01:48 71.6 °F /  22.0 °C 69.4 °F /  20.8 °C 29.8 in /  1010.4 hPa NW 4.2 mph /  6.8 km/h 5 mph /  8.0 km/h 93 % 0 in /  0.0 mm 0.0 W/m2 FEW
01:53 71.6 °F /  22.0 °C 69.4 °F /  20.8 °C 29.8 in /  1010.4 hPa NW 3.3 mph /  5.3 km/h 5 mph /  8.0 km/h 93 % 0 in /  0.0 mm 0.0 W/m2 FEW
01:58 71.4 °F /  21.9 °C 69.4 °F /  20.8 °C 29.8 in /  1010.4 hPa NW 3.4 mph /  5.5 km/h 4.6 mph /  7.4 km/h 93 % 0 in /  0.0 mm 0.0 W/m2 FEW
02:03 71.4 °F /  21.9 °C 69.3 °F /  20.7 °C 29.8 in /  1010.4 hPa WNW 3 mph /  4.8 km/h 4 mph /  6.4 km/h 93 % 0 in /  0.0 mm 0.0 W/m2 FEW
02:08 71.4 °F /  21.9 °C 69.6 °F /  20.9 °C 29.8 in /  1010.4 hPa WSW 1.1 mph /  1.8 km/h 2.3 mph /  3.7 km/h 94 % 0 in /  0.0 mm 0.0 W/m2 FEW
02:13 71.2 °F /  21.8 °C 69.3 °F /  20.7 °C 29.8 in /  1010.0 hPa WNW 1.3 mph /  2.1 km/h 2.3 mph /  3.7 km/h 93 % 0 in /  0.0 mm 0.0 W/m2 FEW
02:18 71.2 °F /  21.8 °C 69.3 °F /  20.7 °C 29.8 in /  1010.0 hPa NW 2 mph /  3.2 km/h 2.3 mph /  3.7 km/h 93 % 0 in /  0.0 mm 0.0 W/m2 FEW
02:23 71.2 °F /  21.8 °C 69.1 °F /  20.6 °C 29.8 in /  1010.0 hPa NW 1 mph /  1.6 km/h 1.1 mph /  1.8 km/h 93 % 0 in /  0.0 mm 0.0 W/m2 FEW
02:28 71.1 °F /  21.7 °C 69.3 °F /  20.7 °C 29.8 in /  1010.0 hPa NW 1.1 mph /  1.8 km/h 2.3 mph /  3.7 km/h 94 % 0 in /  0.0 mm 0.0 W/m2 FEW
02:33 71.1 °F /  21.7 °C 69.3 °F /  20.7 °C 29.8 in /  1010.0 hPa NNW 1.8 mph /  2.9 km/h 2.3 mph /  3.7 km/h 94 % 0 in /  0.0 mm 0.0 W/m2 FEW
02:38 71.1 °F /  21.7 °C 69.3 °F /  20.7 °C 29.8 in /  1010.0 hPa NNE 1 mph /  1.6 km/h 1.1 mph /  1.8 km/h 94 % 0 in /  0.0 mm 0.0 W/m2 FEW
02:43 70.9 °F /  21.6 °C 69.1 °F /  20.6 °C 29.8 in /  1010.0 hPa NNE 1 mph /  1.6 km/h 2.3 mph /  3.7 km/h 94 % 0 in /  0.0 mm 0.0 W/m2 FEW
02:48 70.9 °F /  21.6 °C 69.1 °F /  20.6 °C 29.8 in /  1010.0 hPa North 1 mph /  1.6 km/h 1.1 mph /  1.8 km/h 94 % 0 in /  0.0 mm 0.0 W/m2 FEW
02:53 70.5 °F /  21.4 °C 68.7 °F /  20.4 °C 29.8 in /  1010.0 hPa North 1.8 mph /  2.9 km/h 2.3 mph /  3.7 km/h 94 % 0 in /  0.0 mm 0.0 W/m2 FEW
02:58 70.5 °F /  21.4 °C 68.7 °F /  20.4 °C 29.8 in /  1010.0 hPa North 2 mph /  3.2 km/h 3.5 mph /  5.6 km/h 94 % 0 in /  0.0 mm 0.0 W/m2 FEW
03:03 70.3 °F /  21.3 °C 68.5 °F /  20.3 °C 29.8 in /  1010.0 hPa North 1.7 mph /  2.7 km/h 2.3 mph /  3.7 km/h 94 % 0 in /  0.0 mm 0.0 W/m2 FEW
03:08 70.3 °F /  21.3 °C 68.5 °F /  20.3 °C 29.8 in /  1010.0 hPa North 1.9 mph /  3.1 km/h 3.5 mph /  5.6 km/h 94 % 0 in /  0.0 mm 0.0 W/m2 FEW
03:13 70.2 °F /  21.2 °C 68.4 °F /  20.2 °C 29.8 in /  1010.0 hPa NNW 0.9 mph /  1.4 km/h 3.5 mph /  5.6 km/h 94 % 0 in /  0.0 mm 0.0 W/m2 FEW
03:18 70 °F /  21.1 °C 68.2 °F /  20.1 °C 29.8 in /  1009.7 hPa NNW 2.5 mph /  4.0 km/h 3.5 mph /  5.6 km/h 94 % 0 in /  0.0 mm 0.0 W/m2 FEW
03:23 70 °F /  21.1 °C 68.2 °F /  20.1 °C 29.8 in /  1009.7 hPa North 3.2 mph /  5.1 km/h 4.6 mph /  7.4 km/h 94 % 0 in /  0.0 mm 0.0 W/m2 FEW
03:28 69.6 °F /  20.9 °C 67.8 °F /  19.9 °C 29.8 in /  1009.7 hPa North 2.9 mph /  4.7 km/h 3.5 mph /  5.6 km/h 94 % 0 in /  0.0 mm 0.0 W/m2 FEW
03:33 69.6 °F /  20.9 °C 67.8 °F /  19.9 °C 29.8 in /  1009.7 hPa NNW 1.6 mph /  2.6 km/h 2.3 mph /  3.7 km/h 94 % 0 in /  0.0 mm 0.0 W/m2 FEW
03:38 69.6 °F /  20.9 °C 67.8 °F /  19.9 °C 29.8 in /  1009.7 hPa NNW 1.2 mph /  1.9 km/h 2.3 mph /  3.7 km/h 94 % 0 in /  0.0 mm 0.0 W/m2 FEW
03:43 69.6 °F /  20.9 °C 67.8 °F /  19.9 °C 29.8 in /  1010.0 hPa NNW 1.2 mph /  1.9 km/h 3 mph /  4.8 km/h 94 % 0 in /  0.0 mm 0.0 W/m2 FEW
03:48 69.4 °F /  20.8 °C 67.6 °F /  19.8 °C 29.8 in /  1010.0 hPa North 3 mph /  4.8 km/h 3.5 mph /  5.6 km/h 94 % 0 in /  0.0 mm 0.0 W/m2 FEW
03:53 69.3 °F /  20.7 °C 67.5 °F /  19.7 °C 29.8 in /  1010.0 hPa North 3.1 mph /  5.0 km/h 3.5 mph /  5.6 km/h 94 % 0 in /  0.0 mm 0.0 W/m2 FEW
03:58 69.3 °F /  20.7 °C 67.5 °F /  19.7 °C 29.8 in /  1010.0 hPa NW 2.3 mph /  3.7 km/h 4 mph /  6.4 km/h 94 % 0 in /  0.0 mm 0.0 W/m2 FEW
04:03 69.3 °F /  20.7 °C 67.5 °F /  19.7 °C 29.8 in /  1010.0 hPa NNW 2.2 mph /  3.5 km/h 3.5 mph /  5.6 km/h 94 % 0 in /  0.0 mm 0.0 W/m2 FEW
04:08 69.1 °F /  20.6 °C 67.6 °F /  19.8 °C 29.8 in /  1010.0 hPa North 0.3 mph /  0.5 km/h 1.1 mph /  1.8 km/h 95 % 0 in /  0.0 mm 0.0 W/m2 FEW
04:13 69.1 °F /  20.6 °C 67.6 °F /  19.8 °C 29.8 in /  1010.0 hPa North 0.3 mph /  0.5 km/h 1.1 mph /  1.8 km/h 95 % 0 in /  0.0 mm 0.0 W/m2 FEW
04:18 69.1 °F /  20.6 °C 67.6 °F /  19.8 °C 29.8 in /  1009.7 hPa NNE 1.3 mph /  2.1 km/h 3.5 mph /  5.6 km/h 95 % 0 in /  0.0 mm 0.0 W/m2 FEW
04:23 69.1 °F /  20.6 °C 67.6 °F /  19.8 °C 29.8 in /  1009.7 hPa NNW 1.3 mph /  2.1 km/h 3.5 mph /  5.6 km/h 95 % 0 in /  0.0 mm 0.0 W/m2 FEW
04:28 69.1 °F /  20.6 °C 67.6 °F /  19.8 °C 29.8 in /  1009.7 hPa North 1.9 mph /  3.1 km/h 3.5 mph /  5.6 km/h 95 % 0 in /  0.0 mm 0.0 W/m2 FEW
04:33 69.1 °F /  20.6 °C 67.5 °F /  19.7 °C 29.8 in /  1010.0 hPa NNW 0.8 mph /  1.3 km/h 2.3 mph /  3.7 km/h 95 % 0 in /  0.0 mm 0.0 W/m2 FEW
04:38 69.1 °F /  20.6 °C 67.5 °F /  19.7 °C 29.8 in /  1009.7 hPa NNW 1.3 mph /  2.1 km/h 2.3 mph /  3.7 km/h 95 % 0 in /  0.0 mm 0.0 W/m2 FEW
04:43 69.1 °F /  20.6 °C 67.6 °F /  19.8 °C 29.8 in /  1009.7 hPa NW 2 mph /  3.2 km/h 2.3 mph /  3.7 km/h 95 % 0 in /  0.0 mm 0.0 W/m2 FEW
04:48 69.1 °F /  20.6 °C 67.5 °F /  19.7 °C 29.8 in /  1009.7 hPa NNW 1.9 mph /  3.1 km/h 2.3 mph /  3.7 km/h 95 % 0 in /  0.0 mm 0.0 W/m2 FEW
04:53 68.7 °F /  20.4 °C 67.3 °F /  19.6 °C 29.8 in /  1010.0 hPa NNW 1 mph /  1.6 km/h 2.3 mph /  3.7 km/h 95 % 0 in /  0.0 mm 0.0 W/m2 FEW
04:58 68.7 °F /  20.4 °C 67.3 °F /  19.6 °C 29.8 in /  1010.0 hPa Calm     95 % 0 in /  0.0 mm 0.0 W/m2 FEW
05:03 68.5 °F /  20.3 °C 67.1 °F /  19.5 °C 29.8 in /  1009.7 hPa Calm     95 % 0 in /  0.0 mm 0.0 W/m2 FEW
05:08 68.5 °F /  20.3 °C 66.9 °F /  19.4 °C 29.8 in /  1009.7 hPa NNW 0.5 mph /  0.8 km/h 1.1 mph /  1.8 km/h 95 % 0 in /  0.0 mm 0.0 W/m2 FEW
05:13 68.5 °F /  20.3 °C 67.1 °F /  19.5 °C 29.8 in /  1009.7 hPa WNW 2 mph /  3.2 km/h 2.3 mph /  3.7 km/h 95 % 0 in /  0.0 mm 0.0 W/m2 FEW
05:18 68.5 °F /  20.3 °C 67.1 °F /  19.5 °C 29.8 in /  1009.7 hPa WNW 1.9 mph /  3.1 km/h 3 mph /  4.8 km/h 95 % 0 in /  0.0 mm 0.0 W/m2 FEW
05:23 68.4 °F /  20.2 °C 66.9 °F /  19.4 °C 29.8 in /  1009.7 hPa WNW 1 mph /  1.6 km/h 1.1 mph /  1.8 km/h 95 % 0 in /  0.0 mm 0.0 W/m2 FEW
05:28 68.4 °F /  20.2 °C 66.7 °F /  19.3 °C 29.8 in /  1010.0 hPa WNW 1 mph /  1.6 km/h 2.3 mph /  3.7 km/h 95 % 0 in /  0.0 mm 0.0 W/m2 FEW
05:33 68.4 °F /  20.2 °C 66.7 °F /  19.3 °C 29.8 in /  1010.0 hPa NW 2.2 mph /  3.5 km/h 3.5 mph /  5.6 km/h 95 % 0 in /  0.0 mm 0.0 W/m2 FEW
05:38 68.2 °F /  20.1 °C 66.7 °F /  19.3 °C 29.8 in /  1010.0 hPa NW 2 mph /  3.2 km/h 3.5 mph /  5.6 km/h 95 % 0 in /  0.0 mm 0.0 W/m2 FEW
05:43 67.8 °F /  19.9 °C 66 °F /  18.9 °C 29.8 in /  1010.0 hPa NNW 3 mph /  4.8 km/h 3.5 mph /  5.6 km/h 94 % 0 in /  0.0 mm 0.0 W/m2 FEW
05:48 67.6 °F /  19.8 °C 66.2 °F /  19.0 °C 29.8 in /  1010.4 hPa NW 3.9 mph /  6.3 km/h 3.9 mph /  6.3 km/h 95 % 0 in /  0.0 mm 0.0 W/m2 FEW
05:58 67.5 °F /  19.7 °C 65.8 °F /  18.8 °C 29.8 in /  1010.4 hPa NNW 0.5 mph /  0.8 km/h 2.3 mph /  3.7 km/h 95 % 0 in /  0.0 mm 0.0 W/m2 FEW
06:03 67.3 °F /  19.6 °C 65.8 °F /  18.8 °C 29.8 in /  1010.7 hPa North 1.4 mph /  2.3 km/h 3.5 mph /  5.6 km/h 95 % 0 in /  0.0 mm 0.0 W/m2 FEW
06:08 67.3 °F /  19.6 °C 65.7 °F /  18.7 °C 29.8 in /  1010.7 hPa NNW 1.1 mph /  1.8 km/h 2.3 mph /  3.7 km/h 95 % 0 in /  0.0 mm 0.0 W/m2 FEW
06:13 67.3 °F /  19.6 °C 65.8 °F /  18.8 °C 29.9 in /  1011.1 hPa Calm     95 % 0 in /  0.0 mm 0.0 W/m2 FEW
06:18 66.9 °F /  19.4 °C 65.5 °F /  18.6 °C 29.9 in /  1011.4 hPa SSE 3.4 mph /  5.5 km/h 4 mph /  6.4 km/h 95 % 0 in /  0.0 mm 5.0 W/m2 FEW
06:23 66.7 °F /  19.3 °C 65.1 °F /  18.4 °C 29.9 in /  1011.4 hPa South 3.6 mph /  5.8 km/h 4 mph /  6.4 km/h 95 % 0 in /  0.0 mm 7.0 W/m2 FEW
06:28 66.7 °F /  19.3 °C 65.1 °F /  18.4 °C 29.9 in /  1011.4 hPa South 1.8 mph /  2.9 km/h 3.5 mph /  5.6 km/h 95 % 0 in /  0.0 mm 11.0 W/m2 FEW
06:33 66.7 °F /  19.3 °C 65.1 °F /  18.4 °C 29.9 in /  1011.4 hPa WNW 1 mph /  1.6 km/h 1.1 mph /  1.8 km/h 95 % 0 in /  0.0 mm 14.0 W/m2 FEW
06:38 66.7 °F /  19.3 °C 65.3 °F /  18.5 °C 29.9 in /  1011.4 hPa WSW 1 mph /  1.6 km/h 2 mph /  3.2 km/h 95 % 0 in /  0.0 mm 18.0 W/m2 FEW
06:43 66.7 °F /  19.3 °C 65.3 °F /  18.5 °C 29.9 in /  1011.4 hPa WSW 1.7 mph /  2.7 km/h 2.3 mph /  3.7 km/h 95 % 0 in /  0.0 mm 23.0 W/m2 FEW
06:48 66.7 °F /  19.3 °C 65.3 °F /  18.5 °C 29.9 in /  1011.7 hPa SSW 2.4 mph /  3.9 km/h 4 mph /  6.4 km/h 95 % 0 in /  0.0 mm 25.0 W/m2 FEW
06:53 66.7 °F /  19.3 °C 65.1 °F /  18.4 °C 29.9 in /  1011.7 hPa SSW 2.6 mph /  4.2 km/h 3.5 mph /  5.6 km/h 95 % 0 in /  0.0 mm 28.0 W/m2 FEW
06:58 66.7 °F /  19.3 °C 65.7 °F /  18.7 °C 29.9 in /  1011.7 hPa South 2 mph /  3.2 km/h 3.5 mph /  5.6 km/h 96 % 0 in /  0.0 mm 30.0 W/m2 FEW
07:03 66.9 °F /  19.4 °C 65.8 °F /  18.8 °C 29.9 in /  1011.7 hPa South 0.9 mph /  1.4 km/h 1.1 mph /  1.8 km/h 96 % 0 in /  0.0 mm 32.0 W/m2 FEW
07:08 67.3 °F /  19.6 °C 66 °F /  18.9 °C 29.9 in /  1011.7 hPa SW 1 mph /  1.6 km/h 1.1 mph /  1.8 km/h 96 % 0 in /  0.0 mm 33.0 W/m2 FEW
07:13 67.6 °F /  19.8 °C 66.4 °F /  19.1 °C 29.9 in /  1011.7 hPa Calm   1.1 mph /  1.8 km/h 96 % 0 in /  0.0 mm 37.0 W/m2 FEW
07:18 68 °F /  20.0 °C 66.7 °F /  19.3 °C 29.9 in /  1011.7 hPa Calm     96 % 0 in /  0.0 mm 46.0 W/m2 FEW
07:23 68.4 °F /  20.2 °C 67.1 °F /  19.5 °C 29.9 in /  1011.7 hPa West 0.3 mph /  0.5 km/h 1.1 mph /  1.8 km/h 96 % 0 in /  0.0 mm 51.0 W/m2 FEW
07:28 68.5 °F /  20.3 °C 67.5 °F /  19.7 °C 29.9 in /  1012.1 hPa SW 1.3 mph /  2.1 km/h 2.3 mph /  3.7 km/h 96 % 0 in /  0.0 mm 62.0 W/m2 FEW
07:33 69.1 °F /  20.6 °C 68.2 °F /  20.1 °C 29.9 in /  1012.1 hPa SW 2.1 mph /  3.4 km/h 3.5 mph /  5.6 km/h 97 % 0 in /  0.0 mm 58.0 W/m2 FEW
07:38 69.4 °F /  20.8 °C 68.2 °F /  20.1 °C 29.9 in /  1012.1 hPa SW 2 mph /  3.2 km/h 3.5 mph /  5.6 km/h 96 % 0 in /  0.0 mm 69.0 W/m2 FEW
07:43 69.6 °F /  20.9 °C 68.7 °F /  20.4 °C 29.9 in /  1012.1 hPa WSW 1.3 mph /  2.1 km/h 3.5 mph /  5.6 km/h 97 % 0 in /  0.0 mm 83.0 W/m2 FEW
07:48 70 °F /  21.1 °C 68.7 °F /  20.4 °C 29.9 in /  1012.4 hPa SW 1.8 mph /  2.9 km/h 3.5 mph /  5.6 km/h 96 % 0 in /  0.0 mm 76.0 W/m2 FEW
07:53 70.2 °F /  21.2 °C 69.1 °F /  20.6 °C 29.9 in /  1012.4 hPa South 3.1 mph /  5.0 km/h 4 mph /  6.4 km/h 96 % 0 in /  0.0 mm 77.0 W/m2 FEW
07:58 70.3 °F /  21.3 °C 69.3 °F /  20.7 °C 29.9 in /  1012.4 hPa SSW 1.8 mph /  2.9 km/h 3.5 mph /  5.6 km/h 96 % 0 in /  0.0 mm 98.0 W/m2 FEW
08:03 70.5 °F /  21.4 °C 69.3 °F /  20.7 °C 29.9 in /  1012.4 hPa West 1.8 mph /  2.9 km/h 3.5 mph /  5.6 km/h 96 % 0 in /  0.0 mm 120.0 W/m2 FEW
08:08 70.9 °F /  21.6 °C 69.6 °F /  20.9 °C 29.9 in /  1012.4 hPa SW 2.6 mph /  4.2 km/h 3.5 mph /  5.6 km/h 96 % 0 in /  0.0 mm 179.0 W/m2 FEW
08:13 71.2 °F /  21.8 °C 70 °F /  21.1 °C 29.9 in /  1012.4 hPa WSW 1.5 mph /  2.4 km/h 3.5 mph /  5.6 km/h 96 % 0 in /  0.0 mm 199.0 W/m2 FEW
08:18 71.8 °F /  22.1 °C 70.5 °F /  21.4 °C 29.9 in /  1012.4 hPa WSW 1.6 mph /  2.6 km/h 2.3 mph /  3.7 km/h 96 % 0 in /  0.0 mm 290.0 W/m2 FEW
08:23 72.1 °F /  22.3 °C 70.9 °F /  21.6 °C 29.9 in /  1012.4 hPa West 1.6 mph /  2.6 km/h 2.3 mph /  3.7 km/h 96 % 0 in /  0.0 mm 137.0 W/m2 FEW
08:28 72.3 °F /  22.4 °C 71.1 °F /  21.7 °C 29.9 in /  1012.4 hPa WSW 1.9 mph /  3.1 km/h 3.5 mph /  5.6 km/h 96 % 0 in /  0.0 mm 279.0 W/m2 FEW
08:33 72.9 °F /  22.7 °C 71.6 °F /  22.0 °C 29.9 in /  1012.4 hPa WSW 1.7 mph /  2.7 km/h 2.3 mph /  3.7 km/h 96 % 0 in /  0.0 mm 258.0 W/m2 FEW
08:38 73.4 °F /  23.0 °C 72 °F /  22.2 °C 29.9 in /  1012.4 hPa WSW 1.3 mph /  2.1 km/h 2.3 mph /  3.7 km/h 95 % 0 in /  0.0 mm 264.0 W/m2 FEW
08:43 73.6 °F /  23.1 °C 71.8 °F /  22.1 °C 29.9 in /  1012.4 hPa WNW 1.4 mph /  2.3 km/h 2 mph /  3.2 km/h 94 % 0 in /  0.0 mm 302.0 W/m2 FEW
08:48 73.9 °F /  23.3 °C 72.1 °F /  22.3 °C 29.9 in /  1012.4 hPa WNW 2.1 mph /  3.4 km/h 3.5 mph /  5.6 km/h 94 % 0 in /  0.0 mm 323.0 W/m2 FEW
08:53 74.1 °F /  23.4 °C 71.8 °F /  22.1 °C 29.9 in /  1012.4 hPa NW 3.3 mph /  5.3 km/h 4 mph /  6.4 km/h 92 % 0 in /  0.0 mm 381.0 W/m2 FEW
08:59 74.7 °F /  23.7 °C 71.8 °F /  22.1 °C 29.9 in /  1012.4 hPa NW 3.2 mph /  5.1 km/h 3.5 mph /  5.6 km/h 91 % 0 in /  0.0 mm 367.0 W/m2 FEW
09:04 74.8 °F /  23.8 °C 71.8 °F /  22.1 °C 29.9 in /  1012.4 hPa NW 2.8 mph /  4.5 km/h 4 mph /  6.4 km/h 90 % 0 in /  0.0 mm 394.0 W/m2 FEW
09:09 75 °F /  23.9 °C 72 °F /  22.2 °C 29.9 in /  1012.4 hPa NW 4.6 mph /  7.4 km/h 5.8 mph /  9.3 km/h 90 % 0 in /  0.0 mm 411.0 W/m2 FEW
09:14 75.4 °F /  24.1 °C 72 °F /  22.2 °C 29.9 in /  1012.4 hPa NW 5.7 mph /  9.2 km/h 5.7 mph /  9.2 km/h 89 % 0 in /  0.0 mm 464.0 W/m2 FEW
09:19 75.6 °F /  24.2 °C 71.8 °F /  22.1 °C 29.9 in /  1012.4 hPa NNW 5.5 mph /  8.8 km/h 6.9 mph /  11.1 km/h 88 % 0 in /  0.0 mm 392.0 W/m2 FEW
09:24 75.7 °F /  24.3 °C 72 °F /  22.2 °C 29.9 in /  1012.1 hPa NW 3.9 mph /  6.3 km/h 4.6 mph /  7.4 km/h 88 % 0 in /  0.0 mm 471.0 W/m2 FEW
09:29 76.5 °F /  24.7 °C 72.3 °F /  22.4 °C 29.9 in /  1012.1 hPa WNW 3.3 mph /  5.3 km/h 3.5 mph /  5.6 km/h 87 % 0 in /  0.0 mm 497.0 W/m2 FEW
09:34 76.6 °F /  24.8 °C 72.5 °F /  22.5 °C 29.9 in /  1012.4 hPa NW 3.4 mph /  5.5 km/h 6 mph /  9.7 km/h 87 % 0 in /  0.0 mm 306.0 W/m2 FEW
09:39 76.8 °F /  24.9 °C 72.3 °F /  22.4 °C 29.9 in /  1012.1 hPa WNW 2.1 mph /  3.4 km/h 3.5 mph /  5.6 km/h 86 % 0 in /  0.0 mm 482.0 W/m2 FEW
09:44 77.2 °F /  25.1 °C 72.1 °F /  22.3 °C 29.9 in /  1012.1 hPa NW 3 mph /  4.8 km/h 4 mph /  6.4 km/h 85 % 0 in /  0.0 mm 496.0 W/m2 FEW
09:49 77.4 °F /  25.2 °C 72.3 °F /  22.4 °C 29.9 in /  1012.1 hPa NW 3.4 mph /  5.5 km/h 4.6 mph /  7.4 km/h 85 % 0 in /  0.0 mm 512.0 W/m2 FEW
09:54 77.7 °F /  25.4 °C 72.9 °F /  22.7 °C 29.9 in /  1012.1 hPa WNW 4.1 mph /  6.6 km/h 5.8 mph /  9.3 km/h 85 % 0 in /  0.0 mm 513.0 W/m2 FEW
09:59 78.1 °F /  25.6 °C 72.9 °F /  22.7 °C 29.9 in /  1012.1 hPa WNW 3.9 mph /  6.3 km/h 5.8 mph /  9.3 km/h 84 % 0 in /  0.0 mm 541.0 W/m2 FEW
10:04 78.1 °F /  25.6 °C 72.5 °F /  22.5 °C 29.9 in /  1012.1 hPa NW 5.5 mph /  8.8 km/h 6.9 mph /  11.1 km/h 83 % 0 in /  0.0 mm 536.0 W/m2 FEW
10:09 78.4 °F /  25.8 °C 73.2 °F /  22.9 °C 29.9 in /  1012.1 hPa NW 3.8 mph /  6.1 km/h 6 mph /  9.7 km/h 84 % 0 in /  0.0 mm 573.0 W/m2 FEW
10:14 78.6 °F /  25.9 °C 73 °F /  22.8 °C 29.9 in /  1012.1 hPa NW 5.1 mph /  8.2 km/h 6.9 mph /  11.1 km/h 83 % 0 in /  0.0 mm 580.0 W/m2 FEW
10:19 78.6 °F /  25.9 °C 72.7 °F /  22.6 °C 29.9 in /  1012.1 hPa NW 4.7 mph /  7.6 km/h 6 mph /  9.7 km/h 82 % 0 in /  0.0 mm 599.0 W/m2 FEW
10:24 79.2 °F /  26.2 °C 73 °F /  22.8 °C 29.9 in /  1012.1 hPa WNW 1.8 mph /  2.9 km/h 5 mph /  8.0 km/h 82 % 0 in /  0.0 mm 608.0 W/m2 FEW
10:29 79.3 °F /  26.3 °C 73.4 °F /  23.0 °C 29.9 in /  1012.1 hPa WNW 3.5 mph /  5.6 km/h 4.6 mph /  7.4 km/h 82 % 0 in /  0.0 mm 615.0 W/m2 FEW
10:34 80.1 °F /  26.7 °C 73.6 °F /  23.1 °C 29.9 in /  1012.1 hPa WNW 5.3 mph /  8.5 km/h 6.9 mph /  11.1 km/h 81 % 0 in /  0.0 mm 635.0 W/m2 FEW
10:39 80.2 °F /  26.8 °C 73.9 °F /  23.3 °C 29.9 in /  1012.1 hPa NW 2.5 mph /  4.0 km/h 4.6 mph /  7.4 km/h 81 % 0 in /  0.0 mm 643.0 W/m2 FEW
10:44 80.4 °F /  26.9 °C 73.9 °F /  23.3 °C 29.9 in /  1012.1 hPa WNW 4.7 mph /  7.6 km/h 6 mph /  9.7 km/h 81 % 0 in /  0.0 mm 657.0 W/m2 FEW
10:49 80.8 °F /  27.1 °C 74.5 °F /  23.6 °C 29.9 in /  1012.1 hPa WNW 5.8 mph /  9.3 km/h 6.9 mph /  11.1 km/h 81 % 0 in /  0.0 mm 666.0 W/m2 FEW
10:54 81.1 °F /  27.3 °C 73.9 °F /  23.3 °C 29.9 in /  1012.1 hPa WNW 4.5 mph /  7.2 km/h 6 mph /  9.7 km/h 79 % 0 in /  0.0 mm 679.0 W/m2 FEW
10:59 81.3 °F /  27.4 °C 75 °F /  23.9 °C 29.9 in /  1012.1 hPa NW 5.9 mph /  9.5 km/h 8.1 mph /  13.0 km/h 81 % 0 in /  0.0 mm 687.0 W/m2 FEW
11:04 81.9 °F /  27.7 °C 74.7 °F /  23.7 °C 29.9 in /  1012.1 hPa West 5.7 mph /  9.2 km/h 7 mph /  11.3 km/h 79 % 0 in /  0.0 mm 657.0 W/m2 FEW
11:09 82.2 °F /  27.9 °C 75.6 °F /  24.2 °C 29.9 in /  1012.1 hPa WNW 5.4 mph /  8.7 km/h 8.1 mph /  13.0 km/h 80 % 0 in /  0.0 mm 705.0 W/m2 FEW
11:10 82.2 °F /  27.9 °C 75 °F /  23.9 °C 29.9 in /  1012.1 hPa West 5.9 mph /  9.5 km/h 8.1 mph /  13.0 km/h 79 % 0 in /  0.0 mm 719.0 W/m2 FEW
11:15 82.6 °F /  28.1 °C 75.4 °F /  24.1 °C 29.9 in /  1012.1 hPa West 5.7 mph /  9.2 km/h 8.1 mph /  13.0 km/h 79 % 0 in /  0.0 mm 728.0 W/m2 FEW
11:20 82.8 °F /  28.2 °C 75.2 °F /  24.0 °C 29.9 in /  1012.1 hPa WNW 6.3 mph /  10.1 km/h 8.1 mph /  13.0 km/h 78 % 0 in /  0.0 mm 740.0 W/m2 FEW
11:25 82.8 °F /  28.2 °C 75 °F /  23.9 °C 29.9 in /  1012.1 hPa WNW 5.5 mph /  8.8 km/h 9.2 mph /  14.8 km/h 78 % 0 in /  0.0 mm 738.0 W/m2 FEW
11:30 82.9 °F /  28.3 °C 74.8 °F /  23.8 °C 29.9 in /  1012.1 hPa WNW 5.4 mph /  8.7 km/h 8.1 mph /  13.0 km/h 77 % 0 in /  0.0 mm 763.0 W/m2 FEW
11:35 83.1 °F /  28.4 °C 75.2 °F /  24.0 °C 29.9 in /  1012.1 hPa West 3.2 mph /  5.1 km/h 7 mph /  11.3 km/h 77 % 0 in /  0.0 mm 761.0 W/m2 FEW
11:40 83.5 °F /  28.6 °C 75.7 °F /  24.3 °C 29.9 in /  1012.1 hPa WNW 7.1 mph /  11.4 km/h 9.2 mph /  14.8 km/h 78 % 0 in /  0.0 mm 766.0 W/m2 FEW
11:45 83.5 °F /  28.6 °C 75 °F /  23.9 °C 29.9 in /  1012.1 hPa WSW 5 mph /  8.0 km/h 6.9 mph /  11.1 km/h 76 % 0 in /  0.0 mm 779.0 W/m2 FEW
11:50 83.8 °F /  28.8 °C 75.9 °F /  24.4 °C 29.9 in /  1011.7 hPa WNW 6.1 mph /  9.8 km/h 9.2 mph /  14.8 km/h 77 % 0 in /  0.0 mm 784.0 W/m2 FEW
11:55 84 °F /  28.9 °C 75.6 °F /  24.2 °C 29.9 in /  1011.7 hPa NW 4.9 mph /  7.9 km/h 8.1 mph /  13.0 km/h 76 % 0 in /  0.0 mm 773.0 W/m2 FEW
12:00 84 °F /  28.9 °C 75.4 °F /  24.1 °C 29.9 in /  1012.1 hPa WNW 5.4 mph /  8.7 km/h 8.1 mph /  13.0 km/h 75 % 0 in /  0.0 mm 795.0 W/m2 FEW
12:05 84 °F /  28.9 °C 74.8 °F /  23.8 °C 29.9 in /  1012.1 hPa WNW 3.6 mph /  5.8 km/h 11.5 mph /  18.5 km/h 74 % 0 in /  0.0 mm 805.0 W/m2 FEW
12:10 84.4 °F /  29.1 °C 75.9 °F /  24.4 °C 29.9 in /  1012.1 hPa WNW 3.9 mph /  6.3 km/h 9.2 mph /  14.8 km/h 76 % 0 in /  0.0 mm 814.0 W/m2 FEW
12:15 84.6 °F /  29.2 °C 74.7 °F /  23.7 °C 29.9 in /  1011.7 hPa WNW 5.2 mph /  8.4 km/h 7 mph /  11.3 km/h 72 % 0 in /  0.0 mm 812.0 W/m2 FEW
12:20 84.7 °F /  29.3 °C 75.2 °F /  24.0 °C 29.9 in /  1011.7 hPa West 5.5 mph /  8.8 km/h 6 mph /  9.7 km/h 73 % 0 in /  0.0 mm 821.0 W/m2 FEW
12:25 85.3 °F /  29.6 °C 74.7 °F /  23.7 °C 29.9 in /  1011.7 hPa WNW 4.8 mph /  7.7 km/h 6.9 mph /  11.1 km/h 71 % 0 in /  0.0 mm 826.0 W/m2 FEW
12:30 85.6 °F /  29.8 °C 75 °F /  23.9 °C 29.9 in /  1011.7 hPa NNW 4.7 mph /  7.6 km/h 6 mph /  9.7 km/h 71 % 0 in /  0.0 mm 828.0 W/m2 FEW
12:35 85.8 °F /  29.9 °C 73.9 °F /  23.3 °C 29.9 in /  1011.7 hPa West 7.2 mph /  11.6 km/h 9.2 mph /  14.8 km/h 68 % 0 in /  0.0 mm 833.0 W/m2 FEW
12:40 85.8 °F /  29.9 °C 75.4 °F /  24.1 °C 29.9 in /  1011.7 hPa NNW 5.5 mph /  8.8 km/h 6.9 mph /  11.1 km/h 71 % 0 in /  0.0 mm 819.0 W/m2 FEW
12:45 86.4 °F /  30.2 °C 74.5 °F /  23.6 °C 29.9 in /  1011.7 hPa NNW 5.8 mph /  9.3 km/h 6.9 mph /  11.1 km/h 68 % 0 in /  0.0 mm 849.0 W/m2 FEW
12:50 86.4 °F /  30.2 °C 74.8 °F /  23.8 °C 29.9 in /  1011.7 hPa NW 7.5 mph /  12.1 km/h 11 mph /  17.7 km/h 69 % 0 in /  0.0 mm 830.0 W/m2 FEW
12:55 86.4 °F /  30.2 °C 73 °F /  22.8 °C 29.9 in /  1011.7 hPa NW 7 mph /  11.3 km/h 11.5 mph /  18.5 km/h 65 % 0 in /  0.0 mm 853.0 W/m2 FEW
13:00 86.7 °F /  30.4 °C 73 °F /  22.8 °C 29.9 in /  1011.7 hPa WNW 6.2 mph /  10.0 km/h 8.1 mph /  13.0 km/h 64 % 0 in /  0.0 mm 854.0 W/m2 FEW
13:05 86.7 °F /  30.4 °C 73.6 °F /  23.1 °C 29.9 in /  1011.7 hPa NNW 8.4 mph /  13.5 km/h 12.7 mph /  20.4 km/h 65 % 0 in /  0.0 mm 856.0 W/m2 FEW
13:10 86.7 °F /  30.4 °C 72.1 °F /  22.3 °C 29.9 in /  1011.7 hPa NW 9.2 mph /  14.8 km/h 11.5 mph /  18.5 km/h 62 % 0 in /  0.0 mm 854.0 W/m2 FEW
13:15 86.9 °F /  30.5 °C 71.2 °F /  21.8 °C 29.9 in /  1011.4 hPa NNW 6.7 mph /  10.8 km/h 10.4 mph /  16.7 km/h 60 % 0 in /  0.0 mm 860.0 W/m2 FEW
13:20 87.3 °F /  30.7 °C 73.6 °F /  23.1 °C 29.9 in /  1011.4 hPa NW 7.6 mph /  12.2 km/h 11 mph /  17.7 km/h 64 % 0 in /  0.0 mm 860.0 W/m2 FEW
13:25 87.3 °F /  30.7 °C 72.7 °F /  22.6 °C 29.9 in /  1011.4 hPa NNW 8.2 mph /  13.2 km/h 11 mph /  17.7 km/h 62 % 0 in /  0.0 mm 858.0 W/m2 FEW
13:30 87.6 °F /  30.9 °C 72.5 °F /  22.5 °C 29.9 in /  1011.4 hPa North 7.4 mph /  11.9 km/h 10 mph /  16.1 km/h 61 % 0 in /  0.0 mm 863.0 W/m2 FEW
13:35 87.6 °F /  30.9 °C 72.5 °F /  22.5 °C 29.9 in /  1011.4 hPa North 7.6 mph /  12.2 km/h 9.2 mph /  14.8 km/h 61 % 0 in /  0.0 mm 858.0 W/m2 FEW
13:40 87.4 °F /  30.8 °C 72.3 °F /  22.4 °C 29.9 in /  1011.4 hPa NNE 5.8 mph /  9.3 km/h 6.9 mph /  11.1 km/h 61 % 0 in /  0.0 mm 856.0 W/m2 FEW
13:45 87.4 °F /  30.8 °C 72.3 °F /  22.4 °C 29.9 in /  1011.4 hPa North 4.4 mph /  7.1 km/h 6.9 mph /  11.1 km/h 61 % 0 in /  0.0 mm 858.0 W/m2 FEW
13:50 87.3 °F /  30.7 °C 72.7 °F /  22.6 °C 29.9 in /  1011.4 hPa NNW 6.3 mph /  10.1 km/h 11.5 mph /  18.5 km/h 62 % 0 in /  0.0 mm 854.0 W/m2 FEW
13:55 87.6 °F /  30.9 °C 73.6 °F /  23.1 °C 29.9 in /  1011.4 hPa NNW 4.8 mph /  7.7 km/h 6.9 mph /  11.1 km/h 63 % 0 in /  0.0 mm 858.0 W/m2 FEW
14:00 88.2 °F /  31.2 °C 73 °F /  22.8 °C 29.9 in /  1011.4 hPa NNW 6.6 mph /  10.6 km/h 8.1 mph /  13.0 km/h 61 % 0 in /  0.0 mm 853.0 W/m2 FEW
14:05 87.8 °F /  31.0 °C 72.1 °F /  22.3 °C 29.9 in /  1011.4 hPa NNW 8.2 mph /  13.2 km/h 9.2 mph /  14.8 km/h 60 % 0 in /  0.0 mm 856.0 W/m2 FEW
14:10 88.2 °F /  31.2 °C 73 °F /  22.8 °C 29.9 in /  1011.4 hPa NNW 8.5 mph /  13.7 km/h 11 mph /  17.7 km/h 61 % 0 in /  0.0 mm 851.0 W/m2 FEW
14:15 88.2 °F /  31.2 °C 72.7 °F /  22.6 °C 29.9 in /  1011.4 hPa NNE 5.5 mph /  8.8 km/h 8.1 mph /  13.0 km/h 60 % 0 in /  0.0 mm 844.0 W/m2 FEW
14:20 88.3 °F /  31.3 °C 72.7 °F /  22.6 °C 29.9 in /  1011.4 hPa NW 8.9 mph /  14.3 km/h 11.5 mph /  18.5 km/h 60 % 0 in /  0.0 mm 846.0 W/m2 FEW
14:25 88.2 °F /  31.2 °C 73 °F /  22.8 °C 29.9 in /  1011.1 hPa North 7.4 mph /  11.9 km/h 10.4 mph /  16.7 km/h 61 % 0 in /  0.0 mm 842.0 W/m2 FEW
14:30 88.3 °F /  31.3 °C 73.6 °F /  23.1 °C 29.9 in /  1011.1 hPa NW 3.7 mph /  6.0 km/h 6.9 mph /  11.1 km/h 62 % 0 in /  0.0 mm 838.0 W/m2 FEW
14:35 88.2 °F /  31.2 °C 73 °F /  22.8 °C 29.9 in /  1011.1 hPa NW 3.5 mph /  5.6 km/h 4.6 mph /  7.4 km/h 61 % 0 in /  0.0 mm 831.0 W/m2 FEW
14:40 88.3 °F /  31.3 °C 73 °F /  22.8 °C 29.9 in /  1011.1 hPa NNW 8.8 mph /  14.2 km/h 11.5 mph /  18.5 km/h 61 % 0 in /  0.0 mm 830.0 W/m2 FEW
14:45 88.5 °F /  31.4 °C 72.3 °F /  22.4 °C 29.9 in /  1011.1 hPa North 7.9 mph /  12.7 km/h 11.5 mph /  18.5 km/h 59 % 0 in /  0.0 mm 821.0 W/m2 FEW
14:50 88.9 °F /  31.6 °C 72.7 °F /  22.6 °C 29.9 in /  1011.1 hPa NNW 6.6 mph /  10.6 km/h 9.2 mph /  14.8 km/h 59 % 0 in /  0.0 mm 821.0 W/m2 FEW
14:55 89.2 °F /  31.8 °C 73 °F /  22.8 °C 29.9 in /  1011.1 hPa NNW 8 mph /  12.9 km/h 10.4 mph /  16.7 km/h 59 % 0 in /  0.0 mm 814.0 W/m2 FEW
15:00 88.9 °F /  31.6 °C 72.7 °F /  22.6 °C 29.9 in /  1011.1 hPa NNW 7.8 mph /  12.6 km/h 11.5 mph /  18.5 km/h 59 % 0 in /  0.0 mm 809.0 W/m2 FEW
15:05 88.5 °F /  31.4 °C 72.9 °F /  22.7 °C 29.9 in /  1011.1 hPa NNW 6.4 mph /  10.3 km/h 9 mph /  14.5 km/h 60 % 0 in /  0.0 mm 796.0 W/m2 FEW
15:10 88.3 °F /  31.3 °C 72.1 °F /  22.3 °C 29.9 in /  1011.1 hPa NNW 5.9 mph /  9.5 km/h 10.4 mph /  16.7 km/h 59 % 0 in /  0.0 mm 795.0 W/m2 FEW
15:15 88.5 °F /  31.4 °C 71.2 °F /  21.8 °C 29.9 in /  1011.1 hPa North 8.5 mph /  13.7 km/h 11.5 mph /  18.5 km/h 57 % 0 in /  0.0 mm 786.0 W/m2 FEW
15:20 88.9 °F /  31.6 °C 69.6 °F /  20.9 °C 29.9 in /  1011.4 hPa NNW 7.8 mph /  12.6 km/h 11.5 mph /  18.5 km/h 53 % 0 in /  0.0 mm 782.0 W/m2 FEW
15:25 88.9 °F /  31.6 °C 70.2 °F /  21.2 °C 29.9 in /  1011.4 hPa NNW 8.1 mph /  13.0 km/h 11.5 mph /  18.5 km/h 54 % 0 in /  0.0 mm 777.0 W/m2 FEW
15:30 88.9 °F /  31.6 °C 70.5 °F /  21.4 °C 29.9 in /  1011.4 hPa NNW 7.2 mph /  11.6 km/h 10.4 mph /  16.7 km/h 55 % 0 in /  0.0 mm 770.0 W/m2 FEW
15:35 89.2 °F /  31.8 °C 69.3 °F /  20.7 °C 29.9 in /  1011.4 hPa NNW 5.8 mph /  9.3 km/h 8.1 mph /  13.0 km/h 52 % 0 in /  0.0 mm 763.0 W/m2 FEW
15:40 89.4 °F /  31.9 °C 69.4 °F /  20.8 °C 29.9 in /  1011.4 hPa NW 3.7 mph /  6.0 km/h 9.2 mph /  14.8 km/h 52 % 0 in /  0.0 mm 756.0 W/m2 FEW
15:45 89.1 °F /  31.7 °C 71.4 °F /  21.9 °C 29.9 in /  1011.4 hPa NW 5.5 mph /  8.8 km/h 8.1 mph /  13.0 km/h 56 % 0 in /  0.0 mm 742.0 W/m2 FEW
15:50 89.2 °F /  31.8 °C 71.1 °F /  21.7 °C 29.9 in /  1011.4 hPa NNE 6.6 mph /  10.6 km/h 9.2 mph /  14.8 km/h 55 % 0 in /  0.0 mm 729.0 W/m2 FEW
15:55 89.6 °F /  32.0 °C 71.2 °F /  21.8 °C 29.9 in /  1011.4 hPa North 8.3 mph /  13.4 km/h 10.4 mph /  16.7 km/h 55 % 0 in /  0.0 mm 724.0 W/m2 FEW
16:00 89.8 °F /  32.1 °C 70.3 °F /  21.3 °C 29.9 in /  1011.1 hPa North 8 mph /  12.9 km/h 10 mph /  16.1 km/h 53 % 0 in /  0.0 mm 715.0 W/m2 FEW
16:05 89.8 °F /  32.1 °C 69.8 °F /  21.0 °C 29.9 in /  1011.1 hPa North 7 mph /  11.3 km/h 9.2 mph /  14.8 km/h 52 % 0 in /  0.0 mm 707.0 W/m2 FEW
16:10 90 °F /  32.2 °C 69.4 °F /  20.8 °C 29.9 in /  1011.1 hPa NE 3.9 mph /  6.3 km/h 5.8 mph /  9.3 km/h 51 % 0 in /  0.0 mm 696.0 W/m2 FEW
16:15 90.1 °F /  32.3 °C 70.9 °F /  21.6 °C 29.9 in /  1011.1 hPa NNE 6 mph /  9.7 km/h 8.1 mph /  13.0 km/h 53 % 0 in /  0.0 mm 689.0 W/m2 FEW
16:20 90.1 °F /  32.3 °C 70.7 °F /  21.5 °C 29.9 in /  1011.1 hPa North 10.3 mph /  16.6 km/h 12.7 mph /  20.4 km/h 53 % 0 in /  0.0 mm 675.0 W/m2 FEW
16:25 90 °F /  32.2 °C 70.5 °F /  21.4 °C 29.9 in /  1011.1 hPa NNE 6 mph /  9.7 km/h 8.1 mph /  13.0 km/h 53 % 0 in /  0.0 mm 666.0 W/m2 FEW
16:30 89.8 °F /  32.1 °C 70.3 °F /  21.3 °C 29.9 in /  1011.1 hPa North 8.8 mph /  14.2 km/h 10.4 mph /  16.7 km/h 53 % 0 in /  0.0 mm 656.0 W/m2 FEW
16:35 89.4 °F /  31.9 °C 71.8 °F /  22.1 °C 29.9 in /  1011.1 hPa North 5.7 mph /  9.2 km/h 7 mph /  11.3 km/h 56 % 0 in /  0.0 mm 642.0 W/m2 FEW
16:40 89.4 °F /  31.9 °C 71.1 °F /  21.7 °C 29.9 in /  1011.1 hPa North 6 mph /  9.7 km/h 9.2 mph /  14.8 km/h 55 % 0 in /  0.0 mm 629.0 W/m2 FEW
16:45 89.4 °F /  31.9 °C 72.7 °F /  22.6 °C 29.9 in /  1011.1 hPa NNW 8.2 mph /  13.2 km/h 11.5 mph /  18.5 km/h 58 % 0 in /  0.0 mm 619.0 W/m2 FEW
16:50 89.6 °F /  32.0 °C 72.3 °F /  22.4 °C 29.8 in /  1010.7 hPa NE 10.3 mph /  16.6 km/h 11.5 mph /  18.5 km/h 57 % 0 in /  0.0 mm 606.0 W/m2 FEW
16:55 89.6 °F /  32.0 °C 71.2 °F /  21.8 °C 29.8 in /  1010.7 hPa North 8.6 mph /  13.8 km/h 12.7 mph /  20.4 km/h 55 % 0 in /  0.0 mm 594.0 W/m2 FEW
17:00 89.4 °F /  31.9 °C 70 °F /  21.1 °C 29.8 in /  1010.7 hPa NNE 11.3 mph /  18.2 km/h 14 mph /  22.5 km/h 53 % 0 in /  0.0 mm 584.0 W/m2 FEW
17:05 89.4 °F /  31.9 °C 68.9 °F /  20.5 °C 29.8 in /  1010.7 hPa NNE 7.4 mph /  11.9 km/h 11.5 mph /  18.5 km/h 51 % 0 in /  0.0 mm 573.0 W/m2 FEW
17:10 89.1 °F /  31.7 °C 68.5 °F /  20.3 °C 29.8 in /  1010.7 hPa North 7.6 mph /  12.2 km/h 11.5 mph /  18.5 km/h 51 % 0 in /  0.0 mm 561.0 W/m2 FEW
17:15 89.1 °F /  31.7 °C 68.5 °F /  20.3 °C 29.8 in /  1010.7 hPa NE 4.8 mph /  7.7 km/h 11.5 mph /  18.5 km/h 51 % 0 in /  0.0 mm 548.0 W/m2 FEW
17:20 89.1 °F /  31.7 °C 67.8 °F /  19.9 °C 29.8 in /  1010.7 hPa NNE 8 mph /  12.9 km/h 10.4 mph /  16.7 km/h 50 % 0 in /  0.0 mm 533.0 W/m2 FEW
17:25 89.2 °F /  31.8 °C 68.2 °F /  20.1 °C 29.8 in /  1010.7 hPa North 5.2 mph /  8.4 km/h 9.2 mph /  14.8 km/h 50 % 0 in /  0.0 mm 522.0 W/m2 FEW
17:30 89.2 °F /  31.8 °C 69.3 °F /  20.7 °C 29.8 in /  1010.7 hPa North 7.4 mph /  11.9 km/h 9.2 mph /  14.8 km/h 52 % 0 in /  0.0 mm 508.0 W/m2 FEW
17:35 89.2 °F /  31.8 °C 68.7 °F /  20.4 °C 29.8 in /  1010.7 hPa NNE 9.2 mph /  14.8 km/h 11.5 mph /  18.5 km/h 51 % 0 in /  0.0 mm 496.0 W/m2 FEW
17:40 89.1 °F /  31.7 °C 67.8 °F /  19.9 °C 29.8 in /  1010.7 hPa NNW 6.9 mph /  11.1 km/h 9.2 mph /  14.8 km/h 50 % 0 in /  0.0 mm 480.0 W/m2 FEW
17:45 88.9 °F /  31.6 °C 68.4 °F /  20.2 °C 29.8 in /  1010.7 hPa North 7.4 mph /  11.9 km/h 11.5 mph /  18.5 km/h 51 % 0 in /  0.0 mm 464.0 W/m2 FEW
17:50 89.1 °F /  31.7 °C 69.1 °F /  20.6 °C 29.8 in /  1010.7 hPa NNE 8 mph /  12.9 km/h 11.5 mph /  18.5 km/h 52 % 0 in /  0.0 mm 450.0 W/m2 FEW
17:55 88.7 °F /  31.5 °C 68.7 °F /  20.4 °C 29.8 in /  1010.7 hPa NNE 8.1 mph /  13.0 km/h 11 mph /  17.7 km/h 52 % 0 in /  0.0 mm 434.0 W/m2 FEW
18:00 88.5 °F /  31.4 °C 69.3 °F /  20.7 °C 29.8 in /  1010.7 hPa NE 6.8 mph /  10.9 km/h 10.4 mph /  16.7 km/h 53 % 0 in /  0.0 mm 420.0 W/m2 FEW
18:05 88.5 °F /  31.4 °C 69.3 °F /  20.7 °C 29.8 in /  1010.7 hPa NNE 4.4 mph /  7.1 km/h 6.9 mph /  11.1 km/h 53 % 0 in /  0.0 mm 404.0 W/m2 FEW
18:10 88.3 °F /  31.3 °C 70.2 °F /  21.2 °C 29.8 in /  1010.7 hPa NNE 9.1 mph /  14.6 km/h 11.5 mph /  18.5 km/h 55 % 0 in /  0.0 mm 387.0 W/m2 FEW
18:15 88.2 °F /  31.2 °C 69.4 °F /  20.8 °C 29.8 in /  1010.4 hPa NNE 6.3 mph /  10.1 km/h 10.4 mph /  16.7 km/h 54 % 0 in /  0.0 mm 373.0 W/m2 FEW
18:20 88 °F /  31.1 °C 70.2 °F /  21.2 °C 29.8 in /  1010.4 hPa NE 6.4 mph /  10.3 km/h 9.2 mph /  14.8 km/h 56 % 0 in /  0.0 mm 357.0 W/m2 FEW
18:25 87.3 °F /  30.7 °C 69.6 °F /  20.9 °C 29.8 in /  1010.4 hPa NE 6 mph /  9.7 km/h 9.2 mph /  14.8 km/h 56 % 0 in /  0.0 mm 341.0 W/m2 FEW
18:26 87.3 °F /  30.7 °C 69.6 °F /  20.9 °C 29.8 in /  1010.4 hPa NE 6 mph /  9.7 km/h 8.1 mph /  13.0 km/h 56 % 0 in /  0.0 mm 341.0 W/m2 FEW
18:31 86.5 °F /  30.3 °C 70.5 °F /  21.4 °C 29.8 in /  1010.4 hPa NE 6.3 mph /  10.1 km/h 9.2 mph /  14.8 km/h 59 % 0 in /  0.0 mm 323.0 W/m2 FEW
18:36 86 °F /  30.0 °C 69.4 °F /  20.8 °C 29.8 in /  1010.4 hPa NE 8.5 mph /  13.7 km/h 11.5 mph /  18.5 km/h 58 % 0 in /  0.0 mm 309.0 W/m2 FEW
18:41 85.5 °F /  29.7 °C 69.4 °F /  20.8 °C 29.8 in /  1010.4 hPa NNE 8.2 mph /  13.2 km/h 11.5 mph /  18.5 km/h 59 % 0 in /  0.0 mm 294.0 W/m2 FEW
18:46 85.1 °F /  29.5 °C 68.2 °F /  20.1 °C 29.8 in /  1010.4 hPa NE 8.5 mph /  13.7 km/h 11.5 mph /  18.5 km/h 57 % 0 in /  0.0 mm 279.0 W/m2 FEW
18:51 85.1 °F /  29.5 °C 68.7 °F /  20.4 °C 29.8 in /  1010.4 hPa NNE 6.5 mph /  10.5 km/h 9.2 mph /  14.8 km/h 58 % 0 in /  0.0 mm 265.0 W/m2 FEW
18:56 85.1 °F /  29.5 °C 68.2 °F /  20.1 °C 29.8 in /  1010.4 hPa NNE 6 mph /  9.7 km/h 7 mph /  11.3 km/h 57 % 0 in /  0.0 mm 250.0 W/m2 FEW
19:01 84.9 °F /  29.4 °C 68 °F /  20.0 °C 29.8 in /  1010.4 hPa NE 6.1 mph /  9.8 km/h 9.2 mph /  14.8 km/h 57 % 0 in /  0.0 mm 239.0 W/m2 FEW
19:06 84.7 °F /  29.3 °C 67.8 °F /  19.9 °C 29.8 in /  1010.4 hPa WNW 6.6 mph /  10.6 km/h 11.5 mph /  18.5 km/h 57 % 0 in /  0.0 mm 221.0 W/m2 FEW
19:11 84.6 °F /  29.2 °C 67.6 °F /  19.8 °C 29.8 in /  1010.4 hPa NE 7.7 mph /  12.4 km/h 10.4 mph /  16.7 km/h 57 % 0 in /  0.0 mm 204.0 W/m2 FEW
19:16 84.2 °F /  29.0 °C 68.4 °F /  20.2 °C 29.8 in /  1010.4 hPa NE 5.5 mph /  8.8 km/h 9.2 mph /  14.8 km/h 59 % 0 in /  0.0 mm 188.0 W/m2 FEW
19:21 83.8 °F /  28.8 °C 67.5 °F /  19.7 °C 29.8 in /  1010.4 hPa NE 6.1 mph /  9.8 km/h 9.2 mph /  14.8 km/h 58 % 0 in /  0.0 mm 172.0 W/m2 FEW
19:26 83.5 °F /  28.6 °C 67.6 °F /  19.8 °C 29.8 in /  1010.4 hPa NNE 6.3 mph /  10.1 km/h 7 mph /  11.3 km/h 59 % 0 in /  0.0 mm 156.0 W/m2 FEW
19:31 82.9 °F /  28.3 °C 67.6 °F /  19.8 °C 29.8 in /  1010.4 hPa NNE 5.9 mph /  9.5 km/h 8.1 mph /  13.0 km/h 60 % 0 in /  0.0 mm 90.0 W/m2 FEW
19:36 82.6 °F /  28.1 °C 68.2 °F /  20.1 °C 29.8 in /  1010.4 hPa NE 4.8 mph /  7.7 km/h 5.8 mph /  9.3 km/h 62 % 0 in /  0.0 mm 58.0 W/m2 FEW
19:41 82 °F /  27.8 °C 67.8 °F /  19.9 °C 29.8 in /  1010.4 hPa NE 5.5 mph /  8.8 km/h 7 mph /  11.3 km/h 62 % 0 in /  0.0 mm 51.0 W/m2 FEW
19:46 81.9 °F /  27.7 °C 68.2 °F /  20.1 °C 29.8 in /  1010.4 hPa NNE 4.8 mph /  7.7 km/h 8.1 mph /  13.0 km/h 63 % 0 in /  0.0 mm 44.0 W/m2 FEW
19:51 81.7 °F /  27.6 °C 67.3 °F /  19.6 °C 29.8 in /  1010.4 hPa NNE 5.3 mph /  8.5 km/h 6.9 mph /  11.1 km/h 62 % 0 in /  0.0 mm 40.0 W/m2 FEW
19:56 81.1 °F /  27.3 °C 67.5 °F /  19.7 °C 29.8 in /  1010.4 hPa NNE 4.6 mph /  7.4 km/h 6 mph /  9.7 km/h 63 % 0 in /  0.0 mm 39.0 W/m2 FEW
20:01 81 °F /  27.2 °C 67.6 °F /  19.8 °C 29.8 in /  1010.4 hPa NE 4.1 mph /  6.6 km/h 5.8 mph /  9.3 km/h 64 % 0 in /  0.0 mm 35.0 W/m2 FEW
20:06 80.4 °F /  26.9 °C 67.6 °F /  19.8 °C 29.8 in /  1010.4 hPa NE 3.3 mph /  5.3 km/h 3.5 mph /  5.6 km/h 65 % 0 in /  0.0 mm 32.0 W/m2 FEW
20:11 80.1 °F /  26.7 °C 67.6 °F /  19.8 °C 29.8 in /  1010.4 hPa NE 2.3 mph /  3.7 km/h 3.5 mph /  5.6 km/h 66 % 0 in /  0.0 mm 30.0 W/m2 FEW
20:16 79.7 °F /  26.5 °C 67.8 °F /  19.9 °C 29.8 in /  1010.7 hPa ENE 2.1 mph /  3.4 km/h 3.5 mph /  5.6 km/h 67 % 0 in /  0.0 mm 26.0 W/m2 FEW
20:21 79.2 °F /  26.2 °C 68.2 °F /  20.1 °C 29.8 in /  1010.7 hPa ENE 2.3 mph /  3.7 km/h 4 mph /  6.4 km/h 69 % 0 in /  0.0 mm 25.0 W/m2 FEW
20:26 78.4 °F /  25.8 °C 67.8 °F /  19.9 °C 29.8 in /  1010.7 hPa ENE 2.6 mph /  4.2 km/h 4 mph /  6.4 km/h 70 % 0 in /  0.0 mm 21.0 W/m2 FEW
20:31 77.9 °F /  25.5 °C 67.6 °F /  19.8 °C 29.8 in /  1010.7 hPa ENE 3.1 mph /  5.0 km/h 4 mph /  6.4 km/h 71 % 0 in /  0.0 mm 18.0 W/m2 FEW
20:36 77.5 °F /  25.3 °C 66.9 °F /  19.4 °C 29.9 in /  1011.1 hPa NE 3.5 mph /  5.6 km/h 4.6 mph /  7.4 km/h 70 % 0 in /  0.0 mm 14.0 W/m2 FEW
20:41 77.2 °F /  25.1 °C 67.1 °F /  19.5 °C 29.9 in /  1011.1 hPa NE 4.2 mph /  6.8 km/h 4.6 mph /  7.4 km/h 71 % 0 in /  0.0 mm 11.0 W/m2 FEW
20:46 76.8 °F /  24.9 °C 67.3 °F /  19.6 °C 29.9 in /  1011.1 hPa NE 4.3 mph /  6.9 km/h 5 mph /  8.0 km/h 72 % 0 in /  0.0 mm 9.0 W/m2 FEW
20:51 76.6 °F /  24.8 °C 67.3 °F /  19.6 °C 29.9 in /  1011.1 hPa NE 4.2 mph /  6.8 km/h 5 mph /  8.0 km/h 73 % 0 in /  0.0 mm 5.0 W/m2 FEW
20:56 76.3 °F /  24.6 °C 67.3 °F /  19.6 °C 29.9 in /  1011.1 hPa NE 3.8 mph /  6.1 km/h 4.6 mph /  7.4 km/h 74 % 0 in /  0.0 mm 0.0 W/m2 FEW
21:01 75.7 °F /  24.3 °C 67.3 °F /  19.6 °C 29.9 in /  1011.1 hPa NE 3 mph /  4.8 km/h 3.5 mph /  5.6 km/h 75 % 0 in /  0.0 mm 0.0 W/m2 FEW
21:06 75.4 °F /  24.1 °C 67.3 °F /  19.6 °C 29.9 in /  1011.1 hPa NE 1.7 mph /  2.7 km/h 3.5 mph /  5.6 km/h 76 % 0 in /  0.0 mm 0.0 W/m2 FEW
21:11 74.7 °F /  23.7 °C 66.9 °F /  19.4 °C 29.9 in /  1011.1 hPa ENE 2.6 mph /  4.2 km/h 3.5 mph /  5.6 km/h 77 % 0 in /  0.0 mm 0.0 W/m2 FEW
21:16 74.5 °F /  23.6 °C 66.7 °F /  19.3 °C 29.9 in /  1011.4 hPa ENE 2 mph /  3.2 km/h 3.5 mph /  5.6 km/h 77 % 0 in /  0.0 mm 0.0 W/m2 FEW
21:21 74.1 °F /  23.4 °C 66.6 °F /  19.2 °C 29.9 in /  1011.4 hPa ENE 3.1 mph /  5.0 km/h 3.5 mph /  5.6 km/h 77 % 0 in /  0.0 mm 0.0 W/m2 FEW
21:26 73.9 °F /  23.3 °C 66.6 °F /  19.2 °C 29.9 in /  1011.4 hPa ENE 2.9 mph /  4.7 km/h 3.5 mph /  5.6 km/h 78 % 0 in /  0.0 mm 0.0 W/m2 FEW
21:31 73.6 °F /  23.1 °C 66.4 °F /  19.1 °C 29.9 in /  1011.4 hPa NE 3.4 mph /  5.5 km/h 4 mph /  6.4 km/h 78 % 0 in /  0.0 mm 0.0 W/m2 FEW
Friend Weather
Compliments of Weather Underground - 2 mb